createdAt,value
2022-12-31T00:00:22.849Z,7.90
2022-12-31T00:02:56.139Z,8.32
2022-12-31T00:05:23.376Z,8.68
2022-12-31T00:07:56.637Z,8.43
2022-12-31T00:10:26.495Z,8.95
2022-12-31T00:12:57.995Z,8.35
2022-12-31T00:15:24.930Z,8.60
2022-12-31T00:17:57.467Z,8.15
2022-12-31T00:20:30.876Z,8.35
2022-12-31T00:23:02.712Z,7.85
2022-12-31T00:25:29.556Z,8.30
2022-12-31T00:28:05.506Z,7.80
2022-12-31T00:30:32.674Z,7.90
2022-12-31T00:33:03.050Z,8.85
2022-12-31T00:35:43.016Z,7.70
2022-12-31T00:38:10.033Z,8.50
2022-12-31T00:40:39.422Z,7.50
2022-12-31T00:43:16.599Z,7.50
2022-12-31T00:45:46.683Z,8.10
2022-12-31T00:48:13.554Z,6.93
2022-12-31T00:50:46.663Z,7.07
2022-12-31T00:55:46.877Z,7.47
2022-12-31T00:58:17.206Z,7.50
2022-12-31T01:00:47.256Z,7.50
2022-12-31T01:03:17.473Z,7.12
2022-12-31T01:05:53.461Z,7.32
2022-12-31T01:08:25.449Z,7.00
2022-12-31T01:10:58.305Z,7.60
2022-12-31T01:13:25.097Z,7.20
2022-12-31T01:15:54.822Z,7.05
2022-12-31T01:18:28.292Z,7.37
2022-12-31T01:21:02.220Z,6.68
2022-12-31T01:23:32.872Z,7.00
2022-12-31T01:26:09.005Z,7.35
2022-12-31T01:28:37.352Z,6.85
2022-12-31T01:31:19.777Z,7.43
2022-12-31T01:33:53.064Z,7.20
2022-12-31T01:36:26.597Z,7.18
2022-12-31T01:39:00.145Z,7.15
2022-12-31T01:41:37.703Z,7.15
2022-12-31T01:44:13.586Z,6.78
2022-12-31T01:47:02.830Z,7.18
2022-12-31T01:49:44.944Z,6.05
2022-12-31T01:52:20.859Z,7.18
2022-12-31T01:54:54.411Z,6.70
2022-12-31T01:57:26.427Z,6.85
2022-12-31T01:59:59.195Z,6.60
2022-12-31T02:02:28.836Z,6.43
2022-12-31T02:05:02.988Z,6.80
2022-12-31T02:07:32.929Z,6.78
2022-12-31T02:10:02.754Z,6.68
2022-12-31T02:12:29.770Z,6.53
2022-12-31T02:15:00.166Z,6.90
2022-12-31T02:17:43.291Z,6.93
2022-12-31T02:20:39.786Z,6.43
2022-12-31T02:23:34.936Z,6.60
2022-12-31T02:26:19.176Z,6.97
2022-12-31T02:29:27.827Z,5.97
2022-12-31T02:32:07.933Z,6.50
2022-12-31T02:34:42.096Z,6.57
2022-12-31T02:37:23.772Z,6.28
2022-12-31T02:39:52.153Z,6.07
2022-12-31T02:42:22.261Z,5.90
2022-12-31T02:44:51.946Z,6.37
2022-12-31T02:48:09.467Z,5.87
2022-12-31T02:50:48.475Z,5.82
2022-12-31T02:53:30.614Z,6.55
2022-12-31T02:56:14.421Z,6.40
2022-12-31T02:59:03.480Z,6.55
2022-12-31T03:01:44.320Z,6.40
2022-12-31T03:04:13.733Z,6.10
2022-12-31T03:06:47.617Z,5.60
2022-12-31T03:09:23.784Z,5.78
2022-12-31T03:11:50.892Z,5.93
2022-12-31T03:14:21.551Z,5.57
2022-12-31T03:16:51.449Z,5.55
2022-12-31T03:19:20.902Z,5.37
2022-12-31T03:21:50.323Z,5.62
2022-12-31T03:24:28.469Z,6.28
2022-12-31T03:26:58.073Z,5.30
2022-12-31T03:29:25.834Z,5.53
2022-12-31T03:31:53.060Z,5.53
2022-12-31T03:34:23.326Z,5.87
2022-12-31T03:36:56.379Z,5.57
2022-12-31T03:41:52.939Z,5.80
2022-12-31T03:44:25.401Z,5.47
2022-12-31T03:46:59.600Z,5.65
2022-12-31T03:49:26.552Z,5.55
2022-12-31T03:51:56.879Z,5.35
2022-12-31T03:54:26.818Z,5.57
2022-12-31T03:56:59.904Z,5.40
2022-12-31T03:59:31.171Z,5.05
2022-12-31T04:01:58.287Z,5.50
2022-12-31T04:04:30.620Z,5.70
2022-12-31T04:07:01.162Z,5.47
2022-12-31T04:09:34.296Z,5.18
2022-12-31T04:14:34.010Z,5.07
2022-12-31T04:17:09.415Z,5.15
2022-12-31T04:19:41.763Z,5.55
2022-12-31T04:22:08.796Z,5.40
2022-12-31T04:24:41.342Z,5.37
2022-12-31T04:27:08.770Z,5.07
2022-12-31T04:29:39.912Z,5.53
2022-12-31T04:32:08.717Z,4.95
2022-12-31T04:34:36.125Z,5.68
2022-12-31T04:37:06.792Z,5.68
2022-12-31T04:39:36.427Z,5.18
2022-12-31T04:42:09.634Z,5.18
2022-12-31T04:44:37.757Z,5.05
2022-12-31T04:47:05.165Z,5.62
2022-12-31T04:49:37.993Z,4.78
2022-12-31T04:52:05.137Z,5.20
2022-12-31T04:54:34.859Z,4.97
2022-12-31T04:57:08.972Z,4.95
2022-12-31T04:59:36.436Z,5.25
2022-12-31T05:02:10.415Z,5.10
2022-12-31T05:04:40.695Z,5.18
2022-12-31T05:07:14.331Z,5.00
2022-12-31T05:09:44.710Z,4.80
2022-12-31T05:12:16.185Z,5.25
2022-12-31T05:14:45.738Z,5.10
2022-12-31T05:17:17.453Z,5.03
2022-12-31T05:19:45.202Z,5.05
2022-12-31T05:22:21.198Z,4.75
2022-12-31T05:24:50.579Z,4.70
2022-12-31T05:27:19.983Z,5.60
2022-12-31T05:29:49.577Z,6.03
2022-12-31T05:32:18.539Z,6.07
2022-12-31T05:34:51.583Z,6.43
2022-12-31T05:39:54.514Z,5.62
2022-12-31T05:42:24.370Z,6.25
2022-12-31T05:44:51.127Z,6.03
2022-12-31T05:47:21.410Z,5.80
2022-12-31T05:49:48.740Z,5.37
2022-12-31T05:52:25.213Z,5.87
2022-12-31T05:54:52.501Z,4.75
2022-12-31T05:57:30.916Z,5.15
2022-12-31T06:00:04.643Z,4.72
2022-12-31T06:02:37.408Z,5.20
2022-12-31T06:05:07.795Z,5.32
2022-12-31T06:07:37.926Z,4.70
2022-12-31T06:10:08.808Z,5.05
2022-12-31T06:12:39.165Z,5.20
2022-12-31T06:15:09.429Z,4.55
2022-12-31T06:17:39.336Z,4.72
2022-12-31T06:20:13.322Z,4.85
2022-12-31T06:22:46.998Z,5.15
2022-12-31T06:25:20.590Z,5.30
2022-12-31T06:27:53.058Z,5.93
2022-12-31T06:30:24.908Z,11.60
2022-12-31T06:32:56.425Z,28.73
2022-12-31T06:35:23.761Z,24.80
2022-12-31T06:37:54.725Z,17.83
2022-12-31T06:40:26.803Z,17.08
2022-12-31T06:42:59.927Z,16.47
2022-12-31T06:45:30.774Z,17.25
2022-12-31T06:48:03.725Z,16.77
2022-12-31T06:50:36.948Z,12.37
2022-12-31T06:53:06.992Z,14.15
2022-12-31T06:55:34.219Z,13.60
2022-12-31T06:58:02.180Z,13.40
2022-12-31T07:00:32.509Z,14.20
2022-12-31T07:03:33.466Z,12.00
2022-12-31T07:06:14.996Z,9.85
2022-12-31T07:09:14.742Z,9.52
2022-12-31T07:12:00.791Z,10.18
2022-12-31T07:14:33.825Z,9.73
2022-12-31T07:19:45.515Z,9.00
2022-12-31T07:22:17.523Z,8.35
2022-12-31T07:24:44.958Z,9.35
2022-12-31T07:27:30.271Z,11.20
2022-12-31T07:30:26.045Z,15.32
2022-12-31T07:33:07.609Z,14.70
2022-12-31T07:36:13.008Z,13.48
2022-12-31T07:39:41.161Z,14.90
2022-12-31T07:42:26.767Z,14.10
2022-12-31T07:45:08.826Z,13.93
2022-12-31T07:47:39.293Z,13.23
2022-12-31T07:50:17.704Z,12.48
2022-12-31T07:52:48.642Z,12.40
2022-12-31T07:55:18.979Z,11.70
2022-12-31T07:58:06.856Z,11.10
2022-12-31T08:00:34.447Z,11.45
2022-12-31T08:03:39.870Z,11.20
2022-12-31T08:06:27.561Z,9.48
2022-12-31T08:09:53.444Z,9.68
2022-12-31T08:12:27.915Z,9.52
2022-12-31T08:14:55.747Z,9.15
2022-12-31T08:17:29.031Z,8.77
2022-12-31T08:20:04.700Z,8.90
2022-12-31T08:23:06.384Z,9.07
2022-12-31T08:26:01.702Z,8.70
2022-12-31T08:28:46.495Z,8.07
2022-12-31T08:31:54.577Z,8.13
2022-12-31T08:34:51.222Z,8.43
2022-12-31T08:37:34.600Z,7.70
2022-12-31T08:40:16.497Z,7.43
2022-12-31T08:42:49.758Z,8.02
2022-12-31T08:45:38.578Z,6.75
2022-12-31T08:48:22.102Z,6.87
2022-12-31T08:50:52.714Z,6.72
2022-12-31T08:53:23.864Z,6.60
2022-12-31T08:56:02.167Z,6.75
2022-12-31T08:58:50.793Z,6.70
2022-12-31T09:01:23.512Z,6.53
2022-12-31T09:04:22.822Z,7.87
2022-12-31T09:06:59.460Z,6.65
2022-12-31T09:10:07.630Z,6.50
2022-12-31T09:13:03.545Z,7.32
2022-12-31T09:15:41.069Z,6.78
2022-12-31T09:18:12.659Z,6.90
2022-12-31T09:20:44.421Z,6.43
2022-12-31T09:23:18.046Z,6.73
2022-12-31T09:26:04.723Z,6.75
2022-12-31T09:28:44.782Z,6.53
2022-12-31T09:31:16.031Z,6.40
2022-12-31T09:33:59.277Z,7.32
2022-12-31T09:39:36.810Z,6.72
2022-12-31T09:42:03.753Z,6.37
2022-12-31T09:45:30.863Z,6.00
2022-12-31T09:48:19.477Z,5.82
2022-12-31T09:51:28.072Z,5.68
2022-12-31T09:54:33.858Z,5.00
2022-12-31T09:57:34.418Z,5.37
2022-12-31T10:00:47.193Z,4.97
2022-12-31T10:04:05.594Z,5.30
2022-12-31T10:07:01.538Z,4.90
2022-12-31T10:10:06.665Z,4.25
2022-12-31T10:12:55.066Z,4.90
2022-12-31T10:15:33.804Z,7.25
2022-12-31T10:18:31.113Z,5.30
2022-12-31T10:21:36.234Z,5.10
2022-12-31T10:24:22.009Z,4.70
2022-12-31T10:27:29.998Z,4.53
2022-12-31T10:30:21.477Z,5.00
2022-12-31T10:33:21.652Z,4.47
2022-12-31T10:36:02.845Z,5.20
2022-12-31T10:38:29.815Z,4.20
2022-12-31T10:41:36.870Z,5.05
2022-12-31T10:44:25.269Z,4.68
2022-12-31T10:47:04.349Z,4.80
2022-12-31T10:49:55.915Z,4.55
2022-12-31T10:52:46.919Z,4.57
2022-12-31T10:55:42.216Z,4.72
2022-12-31T10:58:27.110Z,5.00
2022-12-31T11:01:08.559Z,4.78
2022-12-31T11:03:57.642Z,4.25
2022-12-31T11:06:49.092Z,4.75
2022-12-31T11:09:40.890Z,4.43
2022-12-31T11:12:19.844Z,4.32
2022-12-31T11:14:55.501Z,4.60
2022-12-31T11:17:40.934Z,4.53
2022-12-31T11:20:34.828Z,4.43
2022-12-31T11:23:11.549Z,5.07
2022-12-31T11:25:53.021Z,5.20
2022-12-31T11:28:35.124Z,4.10
2022-12-31T11:31:31.323Z,3.95
2022-12-31T11:34:12.308Z,4.37
2022-12-31T11:36:52.593Z,4.10
2022-12-31T11:39:54.145Z,4.43
2022-12-31T11:42:33.806Z,3.75
2022-12-31T11:45:22.790Z,4.10
2022-12-31T11:48:29.137Z,4.30
2022-12-31T11:51:14.938Z,3.90
2022-12-31T11:54:14.547Z,3.65
2022-12-31T11:57:02.769Z,3.83
2022-12-31T11:59:30.935Z,3.70
2022-12-31T12:02:40.400Z,4.05
2022-12-31T12:05:15.086Z,3.78
2022-12-31T12:07:41.928Z,3.62
2022-12-31T12:10:37.170Z,3.83
2022-12-31T12:13:17.694Z,3.65
2022-12-31T12:15:58.135Z,3.60
2022-12-31T12:18:40.295Z,3.80
2022-12-31T12:21:14.563Z,4.25
2022-12-31T12:24:03.407Z,3.67
2022-12-31T12:26:38.208Z,3.80
2022-12-31T12:29:14.580Z,4.55
2022-12-31T12:31:42.174Z,3.90
2022-12-31T12:34:27.671Z,3.97
2022-12-31T12:37:01.508Z,3.75
2022-12-31T12:39:31.153Z,4.50
2022-12-31T12:42:14.618Z,3.20
2022-12-31T12:44:41.575Z,3.87
2022-12-31T12:47:19.543Z,3.40
2022-12-31T12:49:58.836Z,3.72
2022-12-31T12:52:48.324Z,3.75
2022-12-31T12:55:26.271Z,3.65
2022-12-31T12:58:19.282Z,3.40
2022-12-31T13:01:23.807Z,3.80
2022-12-31T13:04:33.061Z,3.67
2022-12-31T13:07:06.806Z,4.03
2022-12-31T13:10:13.956Z,3.70
2022-12-31T13:13:23.386Z,3.40
2022-12-31T13:16:04.081Z,3.50
2022-12-31T13:19:03.030Z,3.10
2022-12-31T13:21:53.529Z,3.40
2022-12-31T13:24:58.175Z,3.80
2022-12-31T13:27:38.824Z,3.47
2022-12-31T13:30:23.569Z,3.60
2022-12-31T13:32:58.427Z,3.30
2022-12-31T13:35:41.984Z,2.97
2022-12-31T13:38:31.879Z,3.70
2022-12-31T13:41:06.421Z,3.62
2022-12-31T13:43:39.790Z,3.87
2022-12-31T13:46:21.228Z,3.55
2022-12-31T13:48:56.600Z,4.70
2022-12-31T13:51:26.748Z,4.28
2022-12-31T13:54:26.121Z,3.42
2022-12-31T13:57:01.863Z,4.25
2022-12-31T13:59:34.571Z,4.00
2022-12-31T14:02:16.730Z,4.43
2022-12-31T14:04:50.787Z,4.80
2022-12-31T14:07:30.737Z,3.90
2022-12-31T14:10:12.070Z,4.20
2022-12-31T14:13:07.509Z,4.10
2022-12-31T14:16:04.034Z,4.28
2022-12-31T14:19:00.576Z,4.60
2022-12-31T14:21:44.199Z,4.20
2022-12-31T14:24:35.319Z,3.95
2022-12-31T14:27:08.593Z,3.97
2022-12-31T14:29:54.245Z,4.10
2022-12-31T14:33:14.814Z,4.18
2022-12-31T14:36:01.040Z,4.03
2022-12-31T14:38:58.760Z,3.83
2022-12-31T14:41:54.897Z,4.28
2022-12-31T14:44:58.019Z,4.00
2022-12-31T14:47:45.810Z,3.47
2022-12-31T14:50:17.525Z,3.97
2022-12-31T14:53:06.765Z,3.97
2022-12-31T14:55:39.046Z,4.47
2022-12-31T14:58:28.649Z,4.00
2022-12-31T15:01:22.746Z,3.85
2022-12-31T15:03:57.738Z,4.05
2022-12-31T15:06:37.569Z,3.92
2022-12-31T15:09:13.424Z,4.07
2022-12-31T15:12:04.218Z,3.80
2022-12-31T15:14:52.181Z,3.72
2022-12-31T15:17:33.495Z,3.65
2022-12-31T15:20:19.408Z,4.32
2022-12-31T15:22:51.292Z,4.22
2022-12-31T15:25:48.044Z,3.80
2022-12-31T15:28:38.525Z,3.70
2022-12-31T15:31:17.402Z,4.15
2022-12-31T15:33:59.699Z,3.83
2022-12-31T15:36:32.105Z,3.97
2022-12-31T15:39:34.054Z,4.20
2022-12-31T15:42:43.406Z,4.35
2022-12-31T15:45:27.201Z,4.62
2022-12-31T15:48:00.328Z,4.03
2022-12-31T15:50:31.776Z,4.60
2022-12-31T15:53:10.769Z,4.72
2022-12-31T15:55:49.256Z,4.47
2022-12-31T15:58:24.183Z,4.15
2022-12-31T16:01:02.808Z,5.03
2022-12-31T16:03:31.868Z,4.68
2022-12-31T16:06:11.329Z,4.82
2022-12-31T16:08:38.791Z,5.00
2022-12-31T16:11:07.608Z,5.97
2022-12-31T16:13:41.994Z,5.07
2022-12-31T16:16:23.697Z,6.75
2022-12-31T16:18:53.812Z,6.25
2022-12-31T16:21:39.774Z,6.57
2022-12-31T16:24:32.736Z,7.20
2022-12-31T16:27:06.527Z,7.25
2022-12-31T16:29:37.715Z,6.85
2022-12-31T16:32:18.855Z,6.87
2022-12-31T16:34:46.371Z,7.37
2022-12-31T16:37:19.912Z,6.55
2022-12-31T16:40:01.947Z,6.82
2022-12-31T16:42:29.280Z,6.10
2022-12-31T16:44:57.727Z,6.12
2022-12-31T16:47:28.618Z,6.03
2022-12-31T16:50:20.918Z,6.50
2022-12-31T16:53:03.273Z,6.50
2022-12-31T16:55:38.750Z,6.85
2022-12-31T16:58:28.315Z,6.70
2022-12-31T17:01:28.417Z,6.40
2022-12-31T17:04:06.514Z,6.30
2022-12-31T17:06:34.089Z,6.40
2022-12-31T17:09:12.161Z,6.43
2022-12-31T17:11:58.717Z,6.03
2022-12-31T17:14:29.329Z,7.32
2022-12-31T17:17:08.384Z,6.75
2022-12-31T17:19:42.793Z,6.07
2022-12-31T17:22:32.963Z,6.93
2022-12-31T17:25:21.569Z,6.50
2022-12-31T17:28:03.060Z,6.47
2022-12-31T17:30:30.432Z,6.72
2022-12-31T17:33:27.686Z,6.40
2022-12-31T17:36:18.074Z,5.72
2022-12-31T17:38:48.115Z,6.35
2022-12-31T17:41:22.548Z,7.10
2022-12-31T17:43:59.463Z,6.40
2022-12-31T17:46:33.262Z,6.30
2022-12-31T17:49:03.745Z,6.57
2022-12-31T17:51:40.078Z,7.70
2022-12-31T17:54:18.496Z,6.45
2022-12-31T17:56:46.405Z,6.70
2022-12-31T17:59:27.630Z,6.30
2022-12-31T18:02:03.604Z,6.68
2022-12-31T18:04:30.994Z,7.78
2022-12-31T18:07:01.421Z,7.90
2022-12-31T18:09:28.954Z,6.47
2022-12-31T18:12:01.671Z,6.55
2022-12-31T18:17:00.055Z,6.97
2022-12-31T18:20:02.913Z,7.15
2022-12-31T18:22:22.157Z,6.57
2022-12-31T18:24:55.365Z,5.83
2022-12-31T18:27:31.099Z,6.35
2022-12-31T18:30:04.952Z,6.62
2022-12-31T18:32:43.089Z,6.05
2022-12-31T18:38:16.604Z,6.22
2022-12-31T18:40:56.875Z,6.72
2022-12-31T18:43:24.665Z,6.03
2022-12-31T18:45:54.880Z,6.07
2022-12-31T18:48:25.366Z,5.43
2022-12-31T18:51:02.574Z,5.95
2022-12-31T18:53:29.627Z,6.03
2022-12-31T18:55:57.967Z,5.90
2022-12-31T18:58:25.351Z,5.93
2022-12-31T19:00:55.386Z,6.87
2022-12-31T19:03:27.311Z,5.30
2022-12-31T19:05:55.188Z,5.80
2022-12-31T19:08:23.786Z,6.20
2022-12-31T19:11:01.574Z,6.40
2022-12-31T19:13:28.511Z,5.55
2022-12-31T19:15:55.780Z,6.47
2022-12-31T19:18:22.805Z,6.47
2022-12-31T19:20:53.500Z,6.60
2022-12-31T19:23:21.364Z,6.32
2022-12-31T19:25:49.669Z,5.95
2022-12-31T19:28:19.473Z,6.03
2022-12-31T19:30:50.234Z,6.35
2022-12-31T19:33:18.270Z,6.55
2022-12-31T19:35:47.913Z,5.57
2022-12-31T19:38:22.623Z,5.50
2022-12-31T19:40:50.360Z,5.87
2022-12-31T19:43:19.836Z,5.57
2022-12-31T19:45:48.132Z,5.22
2022-12-31T19:48:21.135Z,5.37
2022-12-31T19:53:27.887Z,5.62
2022-12-31T19:55:54.821Z,5.25
2022-12-31T19:58:26.663Z,5.53
2022-12-31T20:01:01.968Z,4.82
2022-12-31T20:03:34.575Z,5.22
2022-12-31T20:06:10.633Z,4.97
2022-12-31T20:08:38.688Z,5.60
2022-12-31T20:11:13.149Z,4.85
2022-12-31T20:13:42.179Z,5.00
2022-12-31T20:16:12.129Z,4.78
2022-12-31T20:18:42.877Z,5.07
2022-12-31T20:21:16.876Z,4.72
2022-12-31T20:23:50.920Z,5.22
2022-12-31T20:26:23.005Z,5.62
2022-12-31T20:28:50.065Z,4.70
2022-12-31T20:31:20.129Z,5.00
2022-12-31T20:33:49.749Z,4.57
2022-12-31T20:36:17.888Z,5.35
2022-12-31T20:38:45.302Z,4.65
2022-12-31T20:41:17.559Z,4.70
2022-12-31T20:43:46.382Z,5.40
2022-12-31T20:46:20.838Z,4.37
2022-12-31T20:48:49.776Z,4.10
2022-12-31T20:51:17.657Z,4.22
2022-12-31T20:53:56.391Z,3.80
2022-12-31T20:56:29.396Z,4.90
2022-12-31T20:59:01.267Z,4.05
2022-12-31T21:01:41.831Z,4.87
2022-12-31T21:04:18.603Z,4.65
2022-12-31T21:06:45.937Z,4.47
2022-12-31T21:09:12.692Z,4.45
2022-12-31T21:11:42.903Z,4.22
2022-12-31T21:14:10.799Z,4.28
2022-12-31T21:16:37.663Z,4.22
2022-12-31T21:19:04.550Z,4.57
2022-12-31T21:21:31.554Z,4.28
2022-12-31T21:24:04.931Z,5.35
2022-12-31T21:26:33.462Z,4.35
2022-12-31T21:29:09.848Z,4.30
2022-12-31T21:31:40.015Z,4.30
2022-12-31T21:34:13.464Z,4.00
2022-12-31T21:36:43.608Z,4.45
2022-12-31T21:39:10.534Z,4.03
2022-12-31T21:41:43.723Z,4.40
2022-12-31T21:44:17.291Z,4.07
2022-12-31T21:47:15.706Z,4.25
2022-12-31T21:49:34.920Z,4.28
2022-12-31T21:52:08.889Z,3.78
2022-12-31T21:54:40.316Z,4.28
2022-12-31T21:57:13.535Z,4.07
2022-12-31T21:59:46.431Z,4.00
2022-12-31T22:02:21.818Z,4.15
2022-12-31T22:05:03.013Z,4.22
2022-12-31T22:07:40.931Z,4.00
2022-12-31T22:10:11.223Z,4.10
2022-12-31T22:12:38.060Z,4.47
2022-12-31T22:15:15.937Z,4.12
2022-12-31T22:17:46.433Z,3.65
2022-12-31T22:20:27.220Z,4.35
2022-12-31T22:22:57.644Z,4.35
2022-12-31T22:25:24.648Z,3.80
2022-12-31T22:28:27.569Z,4.20
2022-12-31T22:30:44.393Z,3.80
2022-12-31T22:33:19.162Z,3.80
2022-12-31T22:36:04.721Z,4.07
2022-12-31T22:38:33.104Z,4.18
2022-12-31T22:41:11.791Z,3.60
2022-12-31T22:43:48.187Z,3.62
2022-12-31T22:46:21.675Z,3.97
2022-12-31T22:48:57.405Z,3.90
2022-12-31T22:51:56.021Z,4.47
2022-12-31T22:54:17.575Z,3.62
2022-12-31T22:56:44.499Z,4.05
2022-12-31T22:59:11.765Z,4.20
2022-12-31T23:01:50.064Z,4.40
2022-12-31T23:04:17.103Z,4.55
2022-12-31T23:06:47.446Z,3.90
2022-12-31T23:09:16.623Z,4.30
2022-12-31T23:11:49.520Z,4.12
2022-12-31T23:16:46.855Z,4.30
2022-12-31T23:19:15.412Z,4.22
2022-12-31T23:21:45.408Z,3.87
2022-12-31T23:24:21.450Z,4.00
2022-12-31T23:26:51.588Z,4.30
2022-12-31T23:29:18.437Z,4.50
2022-12-31T23:31:45.328Z,4.40
2022-12-31T23:34:12.359Z,4.25
2022-12-31T23:36:39.157Z,4.15
2022-12-31T23:39:05.969Z,4.15
2022-12-31T23:41:32.895Z,4.10
2022-12-31T23:44:02.897Z,4.05
2022-12-31T23:46:34.094Z,3.92
2022-12-31T23:49:01.005Z,3.67
2022-12-31T23:51:34.254Z,4.20
2022-12-31T23:54:02.201Z,3.70
2022-12-31T23:56:31.611Z,3.70
2022-12-31T23:59:01.218Z,3.62
